Time;durP1;ratioP1;P1;durP2;ratioP2;P2;SDS_P1;SDS_P2;PMS_P1;PMS_P2;Temp;Humidity;BMP_temperature;BMP_pressure;BME280_temperature;BME280_humidity;BME280_pressure;Samples;Min_cycle;Max_cycle;Signal;HPM_P1;HPM_P2
2024/01/01 00:00:26;;;;;;;423.27;80.70;;;-2.90;99.90;;;;;;4192955;28;20811;-58
2024/01/01 00:02:27;;;;;;;264.43;69.77;;;-2.90;99.90;;;;;;4192627;28;20319;-58
2024/01/01 00:04:30;;;;;;;341.03;74.93;;;-2.90;99.90;;;;;;4193037;28;20308;-57
2024/01/01 00:06:31;;;;;;;179.43;64.97;;;-2.90;99.90;;;;;;4193586;28;20269;-56
2024/01/01 00:08:32;;;;;;;196.97;65.47;;;-2.80;99.90;;;;;;4193539;28;20746;-58
2024/01/01 00:10:34;;;;;;;210.33;71.10;;;-2.70;99.90;;;;;;4192523;28;20656;-56
2024/01/01 00:12:35;;;;;;;288.93;81.57;;;-2.60;99.90;;;;;;4192840;28;20277;-58
2024/01/01 00:14:36;;;;;;;439.90;88.70;;;-2.60;99.90;;;;;;4193805;28;20266;-58
2024/01/01 00:16:38;;;;;;;367.40;84.13;;;-2.50;99.90;;;;;;4192643;28;20289;-57
2024/01/01 00:18:39;;;;;;;265.87;76.50;;;-2.50;99.90;;;;;;4193169;28;20269;-56
2024/01/01 00:20:41;;;;;;;326.43;79.73;;;-2.50;99.90;;;;;;4192294;28;20262;-59
2024/01/01 00:22:44;;;;;;;223.27;71.80;;;-2.50;99.90;;;;;;4193695;28;20657;-58
2024/01/01 00:24:45;;;;;;;202.10;71.70;;;-2.50;99.90;;;;;;4192074;28;20335;-56
2024/01/01 00:26:47;;;;;;;202.33;69.57;;;-2.40;99.90;;;;;;4192590;28;20603;-58
2024/01/01 00:28:48;;;;;;;181.57;65.57;;;-2.40;99.90;;;;;;4193153;28;20273;-57
2024/01/01 00:30:50;;;;;;;391.17;76.87;;;-2.40;99.90;;;;;;4192552;28;20265;-59
2024/01/01 00:32:51;;;;;;;300.27;71.80;;;-2.30;99.90;;;;;;4193218;28;20296;-60
2024/01/01 00:34:52;;;;;;;258.43;65.03;;;-2.40;99.90;;;;;;4192703;28;20278;-59
2024/01/01 00:36:53;;;;;;;462.67;76.10;;;-2.50;99.90;;;;;;4175113;28;20274;-54
2024/01/01 00:38:55;;;;;;;452.43;82.43;;;-2.50;99.90;;;;;;4193170;28;20269;-56
2024/01/01 00:40:56;;;;;;;208.80;59.60;;;-2.60;99.90;;;;;;4192021;28;20281;-59
2024/01/01 00:42:57;;;;;;;238.73;66.00;;;-2.60;99.90;;;;;;4193651;28;20269;-59
2024/01/01 00:44:58;;;;;;;301.73;70.93;;;-2.60;99.90;;;;;;4192229;28;20269;-59
2024/01/01 00:46:59;;;;;;;191.27;65.57;;;-2.60;99.90;;;;;;4193052;28;20281;-58
2024/01/01 00:49:01;;;;;;;196.37;66.30;;;-2.60;99.90;;;;;;4193635;28;20277;-59
2024/01/01 00:51:02;;;;;;;217.23;64.07;;;-2.60;99.90;;;;;;4173783;28;20328;-57
2024/01/01 00:53:03;;;;;;;239.80;58.20;;;-2.50;99.90;;;;;;4193200;28;20385;-59
2024/01/01 00:55:05;;;;;;;195.77;57.37;;;-2.60;99.90;;;;;;4191414;28;20334;-59
2024/01/01 00:57:06;;;;;;;289.90;61.17;;;-2.60;99.90;;;;;;4193165;28;20273;-60
2024/01/01 00:59:07;;;;;;;274.13;63.67;;;-2.70;99.90;;;;;;4192393;28;20828;-56
2024/01/01 01:01:09;;;;;;;333.27;64.17;;;-2.60;99.90;;;;;;4192176;28;20258;-62
2024/01/01 01:03:10;;;;;;;250.00;59.83;;;-2.70;99.90;;;;;;4192578;28;20273;-60
2024/01/01 01:05:11;;;;;;;337.80;66.27;;;-2.70;99.90;;;;;;4192653;28;20781;-59
2024/01/01 01:07:13;;;;;;;319.80;65.93;;;-2.70;99.90;;;;;;4193028;28;20266;-58
2024/01/01 01:09:14;;;;;;;296.63;63.97;;;-2.80;99.90;;;;;;4193601;28;20253;-59
2024/01/01 01:11:15;;;;;;;320.63;59.43;;;-2.80;99.90;;;;;;4190980;28;20622;-59
2024/01/01 01:13:16;;;;;;;426.93;82.13;;;-2.80;99.90;;;;;;4192918;28;20293;-59
2024/01/01 01:15:18;;;;;;;218.27;58.83;;;-2.90;99.90;;;;;;4191986;28;20330;-59
2024/01/01 01:17:19;;;;;;;196.40;58.33;;;-3.00;99.90;;;;;;4191276;28;20269;-59
2024/01/01 01:19:20;;;;;;;219.23;56.33;;;-3.00;99.90;;;;;;4193199;28;20266;-59
2024/01/01 01:21:21;;;;;;;236.53;60.80;;;-3.00;99.90;;;;;;4191582;28;20919;-59
2024/01/01 01:23:23;;;;;;;379.87;81.43;;;-3.00;99.90;;;;;;4193220;28;20319;-60
2024/01/01 01:25:24;;;;;;;222.70;61.67;;;-3.00;99.90;;;;;;4191807;28;20270;-60
2024/01/01 01:27:25;;;;;;;198.47;60.73;;;-3.10;99.90;;;;;;4193080;28;20615;-59
2024/01/01 01:29:26;;;;;;;173.47;59.20;;;-3.00;99.90;;;;;;4191770;28;20274;-57
2024/01/01 01:31:28;;;;;;;192.60;63.03;;;-3.00;99.90;;;;;;4192864;28;20261;-60
2024/01/01 01:33:29;;;;;;;200.43;55.03;;;-3.00;99.90;;;;;;4192148;28;20293;-59
2024/01/01 01:35:30;;;;;;;375.00;71.53;;;-3.00;99.90;;;;;;4192588;28;20265;-60
2024/01/01 01:37:31;;;;;;;211.10;56.47;;;-3.00;99.90;;;;;;4192235;28;20273;-58
2024/01/01 01:39:33;;;;;;;223.57;58.77;;;-3.00;99.90;;;;;;4195529;28;20266;-59
2024/01/01 01:41:34;;;;;;;203.07;59.13;;;-3.00;99.90;;;;;;4195093;28;20273;-58
2024/01/01 01:43:35;;;;;;;235.90;59.30;;;-3.00;99.90;;;;;;4194680;28;20285;-61
2024/01/01 01:45:36;;;;;;;210.23;61.17;;;-3.00;99.90;;;;;;4195661;28;20257;-57
2024/01/01 01:47:37;;;;;;;174.70;58.13;;;-3.00;99.90;;;;;;4195086;28;20319;-58
2024/01/01 01:49:40;;;;;;;260.07;63.23;;;-2.90;99.90;;;;;;4195467;28;20277;-61
2024/01/01 01:51:41;;;;;;;131.33;53.37;;;-2.90;99.90;;;;;;4195232;28;20269;-58
2024/01/01 01:53:43;;;;;;;131.60;52.10;;;-2.90;99.90;;;;;;4195518;28;20361;-58
2024/01/01 01:55:46;;;;;;;125.20;54.80;;;-2.80;99.90;;;;;;4194649;28;20311;-60
2024/01/01 01:57:47;;;;;;;145.57;53.53;;;-2.70;99.90;;;;;;4194729;28;20273;-58
2024/01/01 01:59:48;;;;;;;154.97;55.27;;;-2.70;99.90;;;;;;4194759;28;20292;-58
2024/01/01 02:01:50;;;;;;;166.30;55.33;;;-2.70;99.90;;;;;;4194671;28;20273;-59
2024/01/01 02:03:51;;;;;;;205.10;57.17;;;-2.70;99.90;;;;;;4194281;28;20281;-58
2024/01/01 02:05:54;;;;;;;176.00;54.43;;;-2.70;99.90;;;;;;4195379;28;20311;-59
2024/01/01 02:07:56;;;;;;;104.07;47.43;;;-2.70;99.90;;;;;;4193950;28;20319;-59
2024/01/01 02:09:58;;;;;;;142.50;52.60;;;-2.70;99.90;;;;;;4195505;28;20277;-60
2024/01/01 02:11:59;;;;;;;166.93;53.03;;;-2.70;99.90;;;;;;4194321;28;20265;-60
2024/01/01 02:14:27;;;;;;;151.77;53.40;;;-2.60;99.90;;;;;;4194251;28;20358;-60
2024/01/01 02:16:28;;;;;;;212.33;57.90;;;-2.60;99.90;;;;;;4191257;28;20335;-59
2024/01/01 02:18:29;;;;;;;210.37;57.33;;;-2.60;99.90;;;;;;4194140;28;20347;-57
2024/01/01 02:20:30;;;;;;;160.27;54.13;;;-2.70;99.90;;;;;;4194912;28;20277;-59
2024/01/01 02:22:39;;;;;;;163.70;56.77;;;-2.70;99.90;;;;;;4194183;28;20358;-59
2024/01/01 02:24:40;;;;;;;192.57;58.47;;;-2.70;99.90;;;;;;4194658;28;20295;-60
2024/01/01 02:26:43;;;;;;;230.20;60.73;;;-2.70;99.90;;;;;;4195267;28;20254;-58
2024/01/01 02:28:44;;;;;;;271.33;67.43;;;-2.70;99.90;;;;;;4194632;28;20269;-59
2024/01/01 02:30:45;;;;;;;260.97;67.93;;;-2.70;99.90;;;;;;4194277;28;20687;-58
2024/01/01 02:32:46;;;;;;;220.67;62.37;;;-2.80;99.90;;;;;;4194855;28;20257;-60
2024/01/01 02:34:48;;;;;;;232.67;60.33;;;-2.80;99.90;;;;;;4194702;28;20338;-60
2024/01/01 02:36:49;;;;;;;250.70;63.03;;;-2.80;99.90;;;;;;4195376;28;20269;-54
2024/01/01 02:38:50;;;;;;;254.87;62.13;;;-2.70;99.90;;;;;;4193420;28;20281;-59
2024/01/01 02:40:51;;;;;;;216.10;59.73;;;-2.70;99.90;;;;;;4195008;28;20323;-57
2024/01/01 02:42:54;;;;;;;182.33;60.10;;;-2.60;99.90;;;;;;4194173;28;20311;-59
2024/01/01 02:44:56;;;;;;;170.60;56.43;;;-2.60;99.90;;;;;;4194810;28;20761;-59
2024/01/01 02:46:57;;;;;;;170.43;55.80;;;-2.60;99.90;;;;;;4193487;28;20258;-59
2024/01/01 02:48:58;;;;;;;187.00;55.80;;;-2.60;99.90;;;;;;4194203;28;20265;-57
2024/01/01 02:50:59;;;;;;;316.77;66.43;;;-2.50;99.90;;;;;;4193788;28;20265;-58
2024/01/01 02:53:00;;;;;;;161.93;55.57;;;-2.50;99.90;;;;;;4193456;28;20261;-56
2024/01/01 02:55:01;;;;;;;234.43;56.10;;;-2.50;99.90;;;;;;4194564;28;20274;-58
2024/01/01 02:57:03;;;;;;;186.70;53.27;;;-2.50;99.90;;;;;;4194265;28;20339;-58
2024/01/01 02:59:04;;;;;;;390.90;68.87;;;-2.60;99.90;;;;;;4193215;28;20773;-59
2024/01/01 03:01:05;;;;;;;239.43;59.17;;;-2.60;99.90;;;;;;4194134;28;20350;-58
2024/01/01 03:03:06;;;;;;;224.40;60.63;;;-2.60;99.90;;;;;;4193756;28;20281;-57
2024/01/01 03:05:08;;;;;;;186.37;54.33;;;-2.60;99.90;;;;;;4189992;28;21154;-58
2024/01/01 03:07:09;;;;;;;130.00;51.03;;;-2.60;99.90;;;;;;4194292;28;20343;-58
2024/01/01 03:09:10;;;;;;;151.93;52.60;;;-2.60;99.90;;;;;;4193216;28;20269;-60
2024/01/01 03:11:12;;;;;;;256.17;60.27;;;-2.60;99.90;;;;;;4195352;28;20266;-60
2024/01/01 03:13:13;;;;;;;248.50;57.87;;;-2.60;99.90;;;;;;4175154;28;20282;-58
2024/01/01 03:15:14;;;;;;;277.57;59.47;;;-2.70;99.90;;;;;;4189549;28;20265;-57
2024/01/01 03:17:15;;;;;;;304.07;59.83;;;-2.70;99.90;;;;;;4194387;28;20266;-60
2024/01/01 03:19:17;;;;;;;172.00;49.37;;;-2.70;99.90;;;;;;4193557;28;20343;-59
2024/01/01 03:21:18;;;;;;;135.53;46.03;;;-2.70;99.90;;;;;;4188245;28;20273;-59
2024/01/01 03:23:19;;;;;;;214.50;59.90;;;-2.60;99.90;;;;;;4194434;28;21108;-58
2024/01/01 03:25:20;;;;;;;173.40;52.70;;;-2.60;99.90;;;;;;4193745;28;20266;-58
2024/01/01 03:27:22;;;;;;;188.10;51.07;;;-2.60;99.90;;;;;;4194350;28;20703;-60
2024/01/01 03:29:23;;;;;;;138.37;50.43;;;-2.50;99.90;;;;;;4193812;28;20269;-60
2024/01/01 03:31:24;;;;;;;141.60;50.20;;;-2.50;99.90;;;;;;4194140;28;20261;-60
2024/01/01 03:33:26;;;;;;;157.80;53.97;;;-2.50;99.90;;;;;;4194053;28;20335;-60
2024/01/01 03:35:31;;;;;;;315.23;66.50;;;-2.40;99.90;;;;;;4193192;28;20274;-59
2024/01/01 03:37:32;;;;;;;204.30;58.63;;;-2.40;99.90;;;;;;4194585;28;20648;-60
2024/01/01 03:39:33;;;;;;;200.00;59.27;;;-2.40;99.90;;;;;;4193521;28;20311;-60
2024/01/01 03:41:34;;;;;;;243.07;60.63;;;-2.40;99.90;;;;;;4194598;28;20277;-60
2024/01/01 03:43:36;;;;;;;213.83;59.43;;;-2.40;99.90;;;;;;4192233;28;20273;-59
2024/01/01 03:45:37;;;;;;;188.10;52.57;;;-2.40;99.90;;;;;;4193359;28;20661;-58
2024/01/01 03:47:38;;;;;;;278.33;58.33;;;-2.40;99.90;;;;;;4193271;28;20346;-60
2024/01/01 03:49:40;;;;;;;238.97;54.53;;;-2.40;99.90;;;;;;4194096;28;20326;-59
2024/01/01 03:51:41;;;;;;;256.60;59.40;;;-2.40;99.90;;;;;;4193971;28;20273;-60
2024/01/01 03:53:43;;;;;;;205.40;53.73;;;-2.50;99.90;;;;;;4192926;28;20370;-59
2024/01/01 03:55:44;;;;;;;270.33;58.07;;;-2.50;99.90;;;;;;4192243;28;20415;-57
2024/01/01 03:57:45;;;;;;;184.43;54.90;;;-2.60;99.90;;;;;;4192999;28;20335;-60
2024/01/01 03:59:46;;;;;;;233.37;57.83;;;-2.60;99.90;;;;;;4193220;28;20756;-58
2024/01/01 04:01:47;;;;;;;221.87;55.90;;;-2.70;99.90;;;;;;4192288;28;20303;-58
2024/01/01 04:03:49;;;;;;;157.83;51.03;;;-2.70;99.90;;;;;;4193500;28;20836;-59
2024/01/01 04:05:50;;;;;;;327.00;61.00;;;-2.70;99.90;;;;;;4174808;28;20349;-59
2024/01/01 04:07:52;;;;;;;214.07;52.67;;;-2.70;99.90;;;;;;4193595;28;20285;-60
2024/01/01 04:09:53;;;;;;;220.53;55.67;;;-2.70;99.90;;;;;;4192454;28;20334;-58
2024/01/01 04:11:55;;;;;;;227.23;57.47;;;-2.70;99.90;;;;;;4175542;28;20832;-57
2024/01/01 04:13:56;;;;;;;226.53;57.70;;;-2.70;99.90;;;;;;4192370;28;20937;-61
2024/01/01 04:15:57;;;;;;;221.53;53.30;;;-2.70;99.90;;;;;;4193623;28;20346;-59
2024/01/01 04:17:59;;;;;;;199.80;57.63;;;-2.70;99.90;;;;;;4192863;28;20270;-59
2024/01/01 04:20:00;;;;;;;223.80;57.97;;;-2.70;99.90;;;;;;4193181;28;20808;-60
2024/01/01 04:22:01;;;;;;;380.57;77.90;;;-2.70;99.90;;;;;;4193050;28;20277;-60
2024/01/01 04:24:03;;;;;;;204.53;53.90;;;-2.70;99.90;;;;;;4193222;28;20273;-59
2024/01/01 04:26:04;;;;;;;301.10;56.60;;;-2.70;99.90;;;;;;4192908;28;20819;-57
2024/01/01 04:28:05;;;;;;;287.03;56.20;;;-2.80;99.90;;;;;;4193042;28;20746;-57
2024/01/01 04:30:07;;;;;;;274.60;54.47;;;-2.70;99.90;;;;;;4193591;28;20315;-58
2024/01/01 04:32:08;;;;;;;174.80;50.87;;;-2.70;99.90;;;;;;4192913;28;20750;-58
2024/01/01 04:34:09;;;;;;;222.40;53.37;;;-2.70;99.90;;;;;;4193044;28;20773;-57
2024/01/01 04:36:10;;;;;;;213.73;53.33;;;-2.70;99.90;;;;;;4192767;28;20265;-58
2024/01/01 04:38:12;;;;;;;204.17;52.00;;;-2.70;99.90;;;;;;4175152;28;20270;-59
2024/01/01 04:40:13;;;;;;;225.33;53.43;;;-2.70;99.90;;;;;;4192457;28;20339;-58
2024/01/01 04:42:14;;;;;;;312.10;56.90;;;-2.60;99.90;;;;;;4193251;28;20285;-58
2024/01/01 04:44:16;;;;;;;215.57;51.67;;;-2.60;99.90;;;;;;4191978;28;20282;-56
2024/01/01 04:46:17;;;;;;;265.73;52.40;;;-2.60;99.90;;;;;;4193182;28;20273;-58
2024/01/01 04:48:18;;;;;;;235.07;52.03;;;-2.60;99.90;;;;;;4193040;28;20265;-60
2024/01/01 04:50:19;;;;;;;262.77;51.93;;;-2.60;99.90;;;;;;4193345;28;20258;-59
2024/01/01 04:52:21;;;;;;;224.37;51.37;;;-2.70;99.90;;;;;;4193150;28;20277;-58
2024/01/01 04:54:22;;;;;;;274.93;52.37;;;-2.80;99.90;;;;;;4174582;28;20286;-60
2024/01/01 04:56:23;;;;;;;278.27;55.60;;;-2.80;99.90;;;;;;4192609;28;20330;-58
2024/01/01 04:58:24;;;;;;;248.50;53.50;;;-2.80;99.90;;;;;;4192779;28;20738;-59
2024/01/01 05:00:26;;;;;;;144.00;45.83;;;-2.70;99.90;;;;;;4192825;28;20289;-60
2024/01/01 05:02:27;;;;;;;311.50;58.70;;;-2.80;99.90;;;;;;4192371;28;20277;-59
2024/01/01 05:04:28;;;;;;;174.40;48.30;;;-2.80;99.90;;;;;;4192284;28;20281;-58
2024/01/01 05:06:29;;;;;;;212.70;49.47;;;-2.80;99.90;;;;;;4192600;28;20634;-59
2024/01/01 05:08:32;;;;;;;201.43;49.77;;;-2.80;99.90;;;;;;4192713;28;20281;-58
2024/01/01 05:10:33;;;;;;;169.33;47.10;;;-2.90;99.90;;;;;;4192206;28;20319;-60
2024/01/01 05:12:34;;;;;;;177.77;53.63;;;-2.90;99.90;;;;;;4192687;28;20273;-60
2024/01/01 05:14:38;;;;;;;169.63;49.40;;;-2.80;99.90;;;;;;4196070;28;20765;-59
2024/01/01 05:16:44;;;;;;;198.10;53.87;;;-2.80;99.90;;;;;;4195244;28;20845;-58
2024/01/01 05:18:45;;;;;;;126.27;43.83;;;-2.80;99.90;;;;;;4196184;28;20414;-60
2024/01/01 05:20:46;;;;;;;132.90;45.27;;;-2.80;99.90;;;;;;4195476;28;20303;-57
2024/01/01 05:22:47;;;;;;;108.50;42.27;;;-2.90;99.90;;;;;;4195433;28;20331;-55
2024/01/01 05:24:48;;;;;;;149.97;44.53;;;-2.90;99.90;;;;;;4195754;28;20269;-60
2024/01/01 05:26:49;;;;;;;111.07;42.13;;;-2.90;99.90;;;;;;4194553;28;20683;-59
2024/01/01 05:28:51;;;;;;;207.73;52.87;;;-2.80;99.90;;;;;;4195971;28;20270;-58
2024/01/01 05:30:52;;;;;;;217.67;49.97;;;-2.80;99.90;;;;;;4195910;28;20696;-60
2024/01/01 05:32:53;;;;;;;168.53;43.63;;;-2.80;99.90;;;;;;4195319;28;20269;-59
2024/01/01 05:34:54;;;;;;;142.30;45.47;;;-2.70;99.90;;;;;;4196070;28;20417;-57
2024/01/01 05:36:55;;;;;;;157.70;43.70;;;-2.70;99.90;;;;;;4194324;28;20280;-60
2024/01/01 05:38:57;;;;;;;179.17;44.33;;;-2.70;99.90;;;;;;4196242;28;20757;-58
2024/01/01 05:40:58;;;;;;;207.03;45.83;;;-2.70;99.90;;;;;;4196222;28;20347;-59
2024/01/01 05:42:59;;;;;;;136.33;42.23;;;-2.80;99.90;;;;;;4195688;28;20331;-59
2024/01/01 05:45:00;;;;;;;117.57;37.80;;;-2.80;99.90;;;;;;4194838;28;20277;-59
2024/01/01 05:47:01;;;;;;;109.37;39.03;;;-2.80;99.90;;;;;;4196052;28;20664;-59
2024/01/01 05:49:02;;;;;;;182.23;48.47;;;-2.80;99.90;;;;;;4195239;28;20262;-56
2024/01/01 05:51:04;;;;;;;116.90;41.03;;;-2.80;99.90;;;;;;4196130;28;20738;-60
2024/01/01 05:53:06;;;;;;;82.17;37.90;;;-2.80;99.90;;;;;;4195404;28;20323;-57
2024/01/01 05:55:08;;;;;;;83.50;35.87;;;-2.80;99.90;;;;;;4194783;28;20695;-58
2024/01/01 05:57:09;;;;;;;80.27;36.27;;;-2.70;99.90;;;;;;4195476;28;20319;-54
2024/01/01 05:59:10;;;;;;;88.57;37.80;;;-2.70;99.90;;;;;;4194533;28;20281;-57
2024/01/01 06:01:12;;;;;;;92.43;37.93;;;-2.70;99.90;;;;;;4195270;28;20281;-58
2024/01/01 06:03:13;;;;;;;88.83;39.43;;;-2.80;99.90;;;;;;4195745;28;20281;-58
2024/01/01 06:05:14;;;;;;;77.53;36.27;;;-2.80;99.90;;;;;;4195064;28;20296;-59
2024/01/01 06:07:16;;;;;;;80.50;36.57;;;-2.80;99.90;;;;;;4194705;28;20746;-60
2024/01/01 06:09:17;;;;;;;79.07;39.53;;;-2.70;99.90;;;;;;4195763;28;20737;-59
2024/01/01 06:11:20;;;;;;;78.67;37.13;;;-2.60;99.90;;;;;;4195118;28;20281;-56
2024/01/01 06:13:23;;;;;;;82.13;37.53;;;-2.50;99.90;;;;;;4195458;28;20261;-59
2024/01/01 06:15:27;;;;;;;82.83;36.87;;;-2.50;99.90;;;;;;4194761;28;20785;-55
2024/01/01 06:17:28;;;;;;;83.63;38.70;;;-2.50;99.90;;;;;;4195158;28;20281;-60
2024/01/01 06:19:29;;;;;;;83.50;38.60;;;-2.60;99.90;;;;;;4194564;28;20327;-57
2024/01/01 06:21:30;;;;;;;76.83;36.87;;;-2.50;99.90;;;;;;4195802;28;20262;-58
2024/01/01 06:23:31;;;;;;;77.53;35.17;;;-2.50;99.90;;;;;;4194744;28;20330;-60
2024/01/01 06:25:33;;;;;;;72.57;35.93;;;-2.40;99.90;;;;;;4194297;28;20265;-60
2024/01/01 06:27:34;;;;;;;68.97;32.33;;;-2.30;99.90;;;;;;4195122;28;20307;-56
2024/01/01 06:29:36;;;;;;;72.17;35.10;;;-2.20;99.90;;;;;;4194780;28;20323;-56
2024/01/01 06:31:37;;;;;;;72.23;33.73;;;-2.20;99.90;;;;;;4194288;28;20261;-60
2024/01/01 06:33:39;;;;;;;64.27;30.37;;;-2.20;99.90;;;;;;4194554;28;20323;-60
2024/01/01 06:35:40;;;;;;;65.83;33.80;;;-2.10;99.90;;;;;;4194700;28;20285;-58
2024/01/01 06:37:41;;;;;;;68.70;34.23;;;-2.00;99.90;;;;;;4193749;28;20703;-60
2024/01/01 06:39:42;;;;;;;66.03;31.47;;;-1.90;99.90;;;;;;4195206;28;20307;-59
2024/01/01 06:41:43;;;;;;;64.23;31.57;;;-1.80;99.90;;;;;;4159873;28;20290;-59
2024/01/01 06:43:45;;;;;;;65.17;31.70;;;-1.70;99.90;;;;;;4194887;28;20277;-58
2024/01/01 06:45:46;;;;;;;62.63;30.60;;;-1.60;99.90;;;;;;4194102;28;20795;-59
2024/01/01 06:47:48;;;;;;;58.93;28.40;;;-1.50;99.90;;;;;;4193775;28;20278;-60
2024/01/01 06:49:49;;;;;;;61.30;30.17;;;-1.50;99.90;;;;;;4193838;28;20273;-60
2024/01/01 06:51:50;;;;;;;61.37;29.43;;;-1.40;99.90;;;;;;4194700;28;20266;-59
2024/01/01 06:53:51;;;;;;;57.30;28.77;;;-1.30;99.90;;;;;;4194731;28;20732;-59
2024/01/01 06:55:52;;;;;;;51.70;27.10;;;-1.30;99.90;;;;;;4176695;28;20296;-60
2024/01/01 06:57:54;;;;;;;53.80;27.63;;;-1.20;99.90;;;;;;4193734;28;20273;-59
2024/01/01 06:59:55;;;;;;;52.10;26.27;;;-1.10;99.90;;;;;;4194852;28;20307;-59
2024/01/01 07:01:58;;;;;;;56.47;26.23;;;-1.10;99.90;;;;;;4193474;28;20277;-59
2024/01/01 07:04:00;;;;;;;53.30;28.10;;;-1.00;99.90;;;;;;4191819;28;20269;-59
2024/01/01 07:06:01;;;;;;;52.73;26.53;;;-0.90;99.90;;;;;;4194445;28;20745;-60
2024/01/01 07:08:03;;;;;;;51.73;26.27;;;-0.90;99.90;;;;;;4193047;28;20266;-60
2024/01/01 07:10:05;;;;;;;49.90;26.03;;;-0.80;99.90;;;;;;4193895;28;20660;-60
2024/01/01 07:12:23;;;;;;;51.17;25.10;;;-0.80;99.90;;;;;;4194628;28;20319;-59
2024/01/01 07:14:25;;;;;;;45.90;24.17;;;-0.70;99.90;;;;;;4193353;28;20777;-59
2024/01/01 07:16:27;;;;;;;47.07;25.10;;;-0.70;99.90;;;;;;4189778;28;20359;-59
2024/01/01 07:18:28;;;;;;;42.93;23.27;;;-0.60;99.90;;;;;;4193138;28;20745;-58
2024/01/01 07:20:29;;;;;;;47.00;24.57;;;-0.60;99.90;;;;;;4192142;28;20269;-59
2024/01/01 07:22:30;;;;;;;45.13;24.03;;;-0.50;99.90;;;;;;4192386;28;20342;-59
2024/01/01 07:24:32;;;;;;;48.97;23.10;;;-0.50;99.90;;;;;;4193497;28;20281;-60
2024/01/01 07:26:33;;;;;;;39.60;22.00;;;-0.50;99.90;;;;;;4192012;28;20318;-60
2024/01/01 07:28:34;;;;;;;40.57;21.27;;;-0.40;99.90;;;;;;4192303;28;20278;-60
2024/01/01 07:30:36;;;;;;;40.50;21.13;;;-0.30;99.90;;;;;;4194013;28;20324;-59
2024/01/01 07:32:37;;;;;;;40.07;21.90;;;-0.20;99.90;;;;;;4192622;28;20280;-60
2024/01/01 07:34:38;;;;;;;38.87;21.73;;;-0.20;99.90;;;;;;4192947;28;20285;-60
2024/01/01 07:36:42;;;;;;;39.87;22.37;;;-0.10;99.90;;;;;;4192653;28;20319;-59
2024/01/01 07:38:43;;;;;;;41.40;21.47;;;0.00;99.90;;;;;;4192342;28;20330;-56
2024/01/01 07:40:44;;;;;;;34.17;21.10;;;0.10;99.90;;;;;;4193659;28;20285;-57
2024/01/01 07:42:46;;;;;;;37.93;20.03;;;0.10;99.90;;;;;;4192588;28;20278;-57
2024/01/01 07:44:47;;;;;;;40.00;21.00;;;0.10;99.90;;;;;;4192416;28;20307;-60
2024/01/01 07:46:48;;;;;;;39.57;21.47;;;0.10;99.90;;;;;;4174357;28;20376;-56
2024/01/01 07:48:50;;;;;;;37.77;22.07;;;0.10;99.90;;;;;;4192934;28;20277;-58
2024/01/01 07:50:51;;;;;;;37.17;21.43;;;0.10;99.90;;;;;;4193110;28;20929;-59
2024/01/01 07:52:52;;;;;;;37.67;20.87;;;0.10;99.90;;;;;;4188134;28;20262;-56
2024/01/01 07:54:57;;;;;;;40.70;22.87;;;0.10;99.90;;;;;;4192722;28;20363;-57
2024/01/01 07:56:58;;;;;;;46.10;25.37;;;0.20;99.90;;;;;;4192971;28;21337;-59
2024/01/01 07:58:59;;;;;;;44.00;22.63;;;0.20;99.90;;;;;;4191941;28;20273;-56
2024/01/01 08:01:01;;;;;;;43.57;22.47;;;0.20;99.90;;;;;;4192320;28;20284;-59
2024/01/01 08:03:02;;;;;;;45.83;24.67;;;0.30;99.90;;;;;;4192483;28;20277;-55
2024/01/01 08:05:05;;;;;;;41.73;22.27;;;0.30;99.90;;;;;;4192759;28;20265;-58
2024/01/01 08:07:06;;;;;;;41.83;23.73;;;0.30;99.90;;;;;;4191735;28;20323;-57
2024/01/01 08:09:08;;;;;;;51.27;26.37;;;0.30;99.90;;;;;;4192302;28;20684;-58
2024/01/01 08:11:09;;;;;;;41.47;23.57;;;0.30;99.90;;;;;;4192733;28;20273;-58
2024/01/01 08:13:10;;;;;;;37.93;20.90;;;0.30;99.90;;;;;;4192329;28;20257;-57
2024/01/01 08:15:11;;;;;;;42.10;22.07;;;0.40;99.90;;;;;;4192253;28;20285;-58
2024/01/01 08:17:12;;;;;;;41.57;22.50;;;0.50;99.90;;;;;;4191880;28;20261;-58
2024/01/01 08:19:13;;;;;;;39.83;21.87;;;0.50;99.90;;;;;;4191080;28;20335;-58
2024/01/01 08:21:14;;;;;;;33.63;20.27;;;0.50;99.90;;;;;;4191798;28;20327;-57
2024/01/01 08:23:16;;;;;;;40.10;20.77;;;0.50;99.90;;;;;;4192513;28;20277;-58
2024/01/01 08:25:17;;;;;;;34.77;20.70;;;0.60;99.90;;;;;;4191909;28;20355;-59
2024/01/01 08:27:18;;;;;;;37.57;21.93;;;0.60;99.90;;;;;;4192582;28;20679;-58
2024/01/01 08:29:20;;;;;;;39.23;22.03;;;0.60;99.90;;;;;;4192535;28;20656;-59
2024/01/01 08:31:21;;;;;;;40.90;22.43;;;0.60;99.90;;;;;;4192952;28;20761;-60
2024/01/01 08:33:22;;;;;;;40.67;21.57;;;0.70;99.90;;;;;;4191490;28;20269;-59
2024/01/01 08:35:23;;;;;;;35.23;20.87;;;0.60;99.90;;;;;;4192892;28;20350;-59
2024/01/01 08:37:25;;;;;;;38.73;21.33;;;0.60;99.90;;;;;;4192494;28;20296;-56
2024/01/01 08:39:26;;;;;;;36.10;21.03;;;0.70;99.90;;;;;;4191794;28;20273;-58
2024/01/01 08:41:27;;;;;;;39.87;21.13;;;0.70;99.90;;;;;;4193397;28;20265;-59
2024/01/01 08:43:29;;;;;;;34.97;20.70;;;0.70;99.90;;;;;;4191065;28;20315;-60
2024/01/01 08:45:30;;;;;;;36.50;20.53;;;0.70;99.90;;;;;;4192386;28;20406;-59
2024/01/01 08:47:31;;;;;;;32.60;19.50;;;0.70;99.90;;;;;;4192207;28;20258;-59
2024/01/01 08:49:32;;;;;;;32.10;19.30;;;0.70;99.90;;;;;;4190957;28;20273;-60
2024/01/01 08:51:35;;;;;;;28.63;17.40;;;0.80;99.90;;;;;;4192386;28;20266;-59
2024/01/01 08:53:37;;;;;;;30.47;17.70;;;0.80;99.90;;;;;;4192310;28;20266;-58
2024/01/01 08:55:38;;;;;;;31.00;18.03;;;0.80;99.90;;;;;;4192647;28;20311;-59
2024/01/01 08:57:39;;;;;;;29.93;17.50;;;0.80;99.90;;;;;;4192328;28;20285;-60
2024/01/01 08:59:41;;;;;;;31.87;18.43;;;0.80;99.90;;;;;;4191202;28;20342;-58
2024/01/01 09:01:45;;;;;;;31.93;17.70;;;0.80;99.90;;;;;;4192602;28;20274;-58
2024/01/01 09:03:46;;;;;;;28.87;17.40;;;0.80;99.90;;;;;;4192146;28;20335;-59
2024/01/01 09:05:48;;;;;;;29.73;18.23;;;0.80;99.90;;;;;;4192000;28;20273;-58
2024/01/01 09:07:49;;;;;;;29.63;18.27;;;0.80;99.90;;;;;;4192418;28;20660;-58
2024/01/01 09:09:50;;;;;;;30.00;17.93;;;0.90;99.90;;;;;;4191730;28;20323;-58
2024/01/01 09:11:51;;;;;;;27.40;16.73;;;0.90;99.90;;;;;;4192488;28;20261;-59
2024/01/01 09:13:52;;;;;;;28.93;16.43;;;0.90;99.90;;;;;;4192689;28;20269;-60
2024/01/01 09:15:54;;;;;;;29.10;16.57;;;0.90;99.90;;;;;;4192044;28;20297;-60
2024/01/01 09:17:55;;;;;;;30.73;16.53;;;0.90;99.90;;;;;;4192002;28;20281;-60
2024/01/01 09:19:56;;;;;;;28.37;16.90;;;1.00;99.90;;;;;;4192554;28;20265;-59
2024/01/01 09:21:57;;;;;;;26.10;17.00;;;1.00;99.90;;;;;;4192099;28;20351;-59
2024/01/01 09:24:02;;;;;;;26.83;17.47;;;1.00;99.90;;;;;;4192824;28;20262;-57
2024/01/01 09:26:03;;;;;;;28.27;16.70;;;1.00;99.90;;;;;;4192433;28;20323;-59
2024/01/01 09:28:04;;;;;;;29.10;17.07;;;1.00;99.90;;;;;;4192069;28;20339;-61
2024/01/01 09:30:07;;;;;;;28.80;17.37;;;1.00;99.90;;;;;;4173487;28;20274;-60
2024/01/01 09:32:08;;;;;;;28.30;17.33;;;1.10;99.90;;;;;;4192273;28;20265;-60
2024/01/01 09:34:09;;;;;;;30.60;17.50;;;1.10;99.90;;;;;;4191632;28;21223;-59
2024/01/01 09:36:13;;;;;;;29.57;17.47;;;1.10;99.90;;;;;;4192087;28;20870;-60
2024/01/01 09:38:15;;;;;;;32.70;17.13;;;1.20;99.90;;;;;;4192424;28;20277;-58
2024/01/01 09:40:17;;;;;;;32.17;18.53;;;1.20;99.90;;;;;;4191525;28;20288;-59
2024/01/01 09:42:18;;;;;;;35.83;19.27;;;1.20;99.90;;;;;;4192431;28;20273;-60
2024/01/01 09:44:19;;;;;;;30.50;18.60;;;1.30;99.90;;;;;;4192545;28;20265;-60
2024/01/01 09:46:22;;;;;;;36.63;18.87;;;1.30;99.90;;;;;;4192213;28;20339;-60
2024/01/01 09:48:23;;;;;;;29.33;17.30;;;1.40;99.90;;;;;;4191727;28;20269;-60
2024/01/01 09:50:25;;;;;;;33.43;17.73;;;1.40;99.90;;;;;;4192223;28;20803;-58
2024/01/01 09:52:26;;;;;;;33.63;18.60;;;1.40;99.90;;;;;;4191910;28;20281;-60
2024/01/01 09:54:28;;;;;;;30.60;17.93;;;1.50;99.90;;;;;;4191914;28;20281;-57
2024/01/01 09:56:30;;;;;;;31.87;18.30;;;1.50;99.90;;;;;;4191939;28;20370;-59
2024/01/01 09:58:44;;;;;;;31.77;17.70;;;1.50;99.90;;;;;;4191831;28;20320;-59
2024/01/01 10:00:45;;;;;;;30.23;18.30;;;1.60;99.90;;;;;;4194867;28;20749;-58
2024/01/01 10:02:46;;;;;;;32.03;18.60;;;1.60;99.90;;;;;;4195412;28;20273;-61
2024/01/01 10:04:47;;;;;;;30.83;18.43;;;1.50;99.90;;;;;;4194406;28;20311;-60
2024/01/01 10:06:55;;;;;;;32.57;19.57;;;1.60;99.90;;;;;;4195599;28;20672;-61
2024/01/01 10:09:10;;;;;;;37.60;21.63;;;1.70;99.90;;;;;;4194091;28;20266;-61
2024/01/01 10:11:16;;;;;;;42.07;22.77;;;1.70;99.90;;;;;;4194394;28;20406;-62
2024/01/01 10:13:17;;;;;;;43.43;25.00;;;1.80;99.90;;;;;;4194932;28;20277;-62